createdAt,value
2019-05-11T00:00:19.065Z,1014.9
2019-05-11T00:01:31.262Z,1014.9
2019-05-11T00:02:43.456Z,1014.9
2019-05-11T00:03:55.659Z,1014.9
2019-05-11T00:05:07.856Z,1014.9
2019-05-11T00:06:20.052Z,1014.9
2019-05-11T00:07:32.025Z,1014.8
2019-05-11T00:08:44.045Z,1014.9
2019-05-11T00:09:56.649Z,1014.9
2019-05-11T00:11:08.855Z,1014.9
2019-05-11T00:12:21.051Z,1014.9
2019-05-11T00:13:33.631Z,1014.9
2019-05-11T00:14:45.454Z,1014.9
2019-05-11T00:15:57.655Z,1014.9
2019-05-11T00:17:09.857Z,1014.9
2019-05-11T00:18:22.058Z,1014.8
2019-05-11T00:19:34.252Z,1014.8
2019-05-11T00:20:46.446Z,1014.9
2019-05-11T00:21:58.006Z,1014.9
2019-05-11T00:23:10.840Z,1014.9
2019-05-11T00:24:23.040Z,1015
2019-05-11T00:25:35.242Z,1014.9
2019-05-11T00:26:47.043Z,1015
2019-05-11T00:27:59.641Z,1015
2019-05-11T00:29:11.849Z,1015
2019-05-11T00:30:24.004Z,1014.9
2019-05-11T00:31:36.243Z,1014.9
2019-05-11T00:32:48.438Z,1014.9
2019-05-11T00:34:00.645Z,1014.9
2019-05-11T00:35:12.846Z,1014.9
2019-05-11T00:36:25.038Z,1015
2019-05-11T00:37:37.261Z,1014.9
2019-05-11T00:38:49.442Z,1015
2019-05-11T00:40:01.638Z,1015
2019-05-11T00:41:13.833Z,1015
2019-05-11T00:42:26.030Z,1015
2019-05-11T00:43:38.222Z,1015
2019-05-11T00:44:50.424Z,1014.9
2019-05-11T00:46:02.632Z,1014.9
2019-05-11T00:47:15.245Z,1014.9
2019-05-11T00:48:27.029Z,1014.9
2019-05-11T00:49:39.237Z,1015
2019-05-11T00:50:51.429Z,1015
2019-05-11T00:52:03.639Z,1014.9
2019-05-11T00:53:16.516Z,1014.9
2019-05-11T00:54:28.020Z,1015
2019-05-11T00:55:40.226Z,1014.9
2019-05-11T00:56:52.428Z,1014.9
2019-05-11T00:58:04.063Z,1014.9
2019-05-11T00:59:16.816Z,1014.9
2019-05-11T01:00:29.013Z,1014.9
2019-05-11T01:01:41.021Z,1014.9
2019-05-11T01:02:53.419Z,1015
2019-05-11T01:04:05.610Z,1015
2019-05-11T01:05:17.823Z,1015
2019-05-11T01:06:30.026Z,1014.9
2019-05-11T01:07:42.227Z,1014.9
2019-05-11T01:08:54.514Z,1014.9
2019-05-11T01:10:06.656Z,1014.9
2019-05-11T01:11:18.821Z,1014.9
2019-05-11T01:12:31.025Z,1015
2019-05-11T01:13:43.268Z,1014.9
2019-05-11T01:14:55.434Z,1014.9
2019-05-11T01:16:07.629Z,1014.9
2019-05-11T01:17:20.077Z,1014.9
2019-05-11T01:18:32.028Z,1014.9
2019-05-11T01:19:44.022Z,1014.9
2019-05-11T01:20:56.429Z,1015
2019-05-11T01:22:08.635Z,1015
2019-05-11T01:23:20.837Z,1015
2019-05-11T01:24:33.035Z,1015
2019-05-11T01:25:45.237Z,1015
2019-05-11T01:26:58.058Z,1014.9
2019-05-11T01:28:09.627Z,1015
2019-05-11T01:29:21.847Z,1015
2019-05-11T01:30:34.033Z,1015
2019-05-11T01:31:46.235Z,1015
2019-05-11T01:32:58.433Z,1014.9
2019-05-11T01:34:10.640Z,1014.9
2019-05-11T01:35:22.843Z,1014.9
2019-05-11T01:36:35.043Z,1014.9
2019-05-11T01:37:47.713Z,1014.9
2019-05-11T01:38:59.440Z,1014.9
2019-05-11T01:40:11.646Z,1014.9
2019-05-11T01:41:23.841Z,1014.9
2019-05-11T01:42:36.045Z,1015
2019-05-11T01:43:48.242Z,1014.9
2019-05-11T01:45:00.754Z,1014.9
2019-05-11T01:46:12.651Z,1014.9
2019-05-11T01:47:24.853Z,1014.9
2019-05-11T01:48:37.043Z,1014.9
2019-05-11T01:49:49.253Z,1014.9
2019-05-11T01:51:01.444Z,1014.9
2019-05-11T01:52:13.649Z,1014.9
2019-05-11T01:53:25.853Z,1014.9
2019-05-11T01:54:38.046Z,1014.9
2019-05-11T01:55:50.025Z,1014.9
2019-05-11T01:57:02.045Z,1015
2019-05-11T01:58:14.661Z,1014.9
2019-05-11T02:00:39.055Z,1015
2019-05-11T02:01:51.259Z,1015
2019-05-11T02:03:03.469Z,1015
2019-05-11T02:04:15.661Z,1015
2019-05-11T02:05:27.857Z,1015.1
2019-05-11T02:06:40.058Z,1015.1
2019-05-11T02:07:52.256Z,1015.1
2019-05-11T02:09:04.477Z,1015.1
2019-05-11T02:10:16.670Z,1015.1
2019-05-11T02:11:28.867Z,1015.2
2019-05-11T02:12:41.068Z,1015.1
2019-05-11T02:13:53.273Z,1015.1
2019-05-11T02:15:05.473Z,1015.1
2019-05-11T02:16:17.694Z,1015.1
2019-05-11T02:17:29.863Z,1015.1
2019-05-11T02:18:42.067Z,1015.1
2019-05-11T02:19:54.026Z,1015.1
2019-05-11T02:21:06.489Z,1015.1
2019-05-11T02:22:18.677Z,1015.1
2019-05-11T02:23:30.876Z,1015.1
2019-05-11T02:24:43.077Z,1015.1
2019-05-11T02:25:55.330Z,1015.1
2019-05-11T02:27:07.513Z,1015.2
2019-05-11T02:28:19.678Z,1015.2
2019-05-11T02:29:31.875Z,1015.2
2019-05-11T02:30:44.074Z,1015.1
2019-05-11T02:31:56.277Z,1015.1
2019-05-11T02:33:08.478Z,1015.1
2019-05-11T02:34:20.670Z,1015.1
2019-05-11T02:35:32.885Z,1015.1
2019-05-11T02:36:45.010Z,1015.1
2019-05-11T02:37:57.300Z,1015.1
2019-05-11T02:39:09.486Z,1015.1
2019-05-11T02:40:21.714Z,1015.1
2019-05-11T02:41:33.885Z,1015.1
2019-05-11T02:42:46.083Z,1015.1
2019-05-11T02:43:58.285Z,1015.1
2019-05-11T02:45:10.483Z,1015.1
2019-05-11T02:46:22.686Z,1015.1
2019-05-11T02:47:34.890Z,1015.1
2019-05-11T02:48:47.095Z,1015.1
2019-05-11T02:49:59.296Z,1015.2
2019-05-11T02:51:11.048Z,1015.2
2019-05-11T02:52:23.694Z,1015.2
2019-05-11T02:53:35.930Z,1015.2
2019-05-11T02:54:48.093Z,1015.2
2019-05-11T02:56:00.293Z,1015.2
2019-05-11T02:57:12.540Z,1015.2
2019-05-11T02:58:24.702Z,1015.2
2019-05-11T02:59:36.904Z,1015.2
2019-05-11T03:00:49.111Z,1015.2
2019-05-11T03:02:01.330Z,1015.2
2019-05-11T03:03:13.502Z,1015.3
2019-05-11T03:04:25.703Z,1015.3
2019-05-11T03:05:37.912Z,1015.2
2019-05-11T03:06:50.106Z,1015.3
2019-05-11T03:08:02.302Z,1015.2
2019-05-11T03:09:14.051Z,1015.2
2019-05-11T03:10:26.730Z,1015.3
2019-05-11T03:11:38.910Z,1015.2
2019-05-11T03:12:51.115Z,1015.3
2019-05-11T03:14:03.030Z,1015.3
2019-05-11T03:15:15.519Z,1015.3
2019-05-11T03:16:27.071Z,1015.4
2019-05-11T03:17:39.912Z,1015.4
2019-05-11T03:18:52.121Z,1015.3
2019-05-11T03:20:04.303Z,1015.3
2019-05-11T03:21:16.520Z,1015.3
2019-05-11T03:22:28.718Z,1015.3
2019-05-11T03:23:40.092Z,1015.3
2019-05-11T03:24:53.120Z,1015.4
2019-05-11T03:26:05.368Z,1015.4
2019-05-11T03:27:17.512Z,1015.4
2019-05-11T03:28:29.724Z,1015.4
2019-05-11T03:29:41.924Z,1015.4
2019-05-11T03:30:54.141Z,1015.4
2019-05-11T03:32:06.320Z,1015.4
2019-05-11T03:33:18.535Z,1015.4
2019-05-11T03:34:30.730Z,1015.5
2019-05-11T03:35:42.930Z,1015.5
2019-05-11T03:36:55.122Z,1015.5
2019-05-11T03:38:07.003Z,1015.5
2019-05-11T03:39:19.528Z,1015.5
2019-05-11T03:40:31.007Z,1015.5
2019-05-11T03:41:43.941Z,1015.6
2019-05-11T03:42:56.134Z,1015.7
2019-05-11T03:44:08.330Z,1015.5
2019-05-11T03:45:20.545Z,1015.6
2019-05-11T03:46:32.736Z,1015.6
2019-05-11T03:47:44.938Z,1015.6
2019-05-11T03:48:57.150Z,1015.6
2019-05-11T03:50:09.335Z,1015.5
2019-05-11T03:51:21.538Z,1015.5
2019-05-11T03:52:33.737Z,1015.6
2019-05-11T03:53:45.934Z,1015.6
2019-05-11T03:54:58.137Z,1015.6
2019-05-11T03:56:10.033Z,1015.6
2019-05-11T03:57:22.563Z,1015.7
2019-05-11T03:58:34.744Z,1015.7
2019-05-11T03:59:46.952Z,1015.6
2019-05-11T04:00:59.157Z,1015.7
2019-05-11T04:02:11.394Z,1015.8
2019-05-11T04:03:23.540Z,1015.7
2019-05-11T04:04:35.745Z,1015.7
2019-05-11T04:05:50.116Z,1015.7
2019-05-11T04:07:00.156Z,1015.7
2019-05-11T04:08:12.035Z,1015.7
2019-05-11T04:09:24.553Z,1015.7
2019-05-11T04:10:37.333Z,1015.7
2019-05-11T04:11:48.953Z,1015.7
2019-05-11T04:13:01.156Z,1015.8
2019-05-11T04:14:13.373Z,1015.7
2019-05-11T04:15:25.553Z,1015.8
2019-05-11T04:16:37.748Z,1015.8
2019-05-11T04:17:49.956Z,1015.8
2019-05-11T04:19:02.167Z,1015.7
2019-05-11T04:20:14.366Z,1015.8
2019-05-11T04:21:26.562Z,1015.7
2019-05-11T04:22:38.791Z,1015.8
2019-05-11T04:23:50.965Z,1015.8
2019-05-11T04:25:03.166Z,1015.7
2019-05-11T04:26:15.360Z,1015.7
2019-05-11T04:27:28.120Z,1015.7
2019-05-11T04:28:39.772Z,1015.7
2019-05-11T04:29:51.972Z,1015.7
2019-05-11T04:31:04.169Z,1015.7
2019-05-11T04:32:16.371Z,1015.7
2019-05-11T04:33:28.572Z,1015.8
2019-05-11T04:34:40.777Z,1015.8
2019-05-11T04:35:53.339Z,1015.8
2019-05-11T04:37:05.669Z,1015.8
2019-05-11T04:38:17.381Z,1015.8
2019-05-11T04:39:29.583Z,1015.8
2019-05-11T04:40:41.785Z,1015.8
2019-05-11T04:41:53.980Z,1015.9
2019-05-11T04:43:06.175Z,1015.8
2019-05-11T04:44:18.037Z,1015.8
2019-05-11T04:45:30.579Z,1015.8
2019-05-11T04:46:42.791Z,1015.9
2019-05-11T04:47:54.992Z,1015.9
2019-05-11T04:49:07.192Z,1015.9
2019-05-11T04:50:19.389Z,1015.9
2019-05-11T04:51:31.598Z,1015.9
2019-05-11T04:52:43.801Z,1015.9
2019-05-11T04:53:56.011Z,1015.9
2019-05-11T04:55:08.203Z,1015.9
2019-05-11T04:56:20.448Z,1015.9
2019-05-11T04:57:32.604Z,1015.9
2019-05-11T04:58:44.799Z,1015.9
2019-05-11T04:59:56.992Z,1015.9
2019-05-11T05:01:09.200Z,1015.9
2019-05-11T05:02:21.397Z,1015.9
2019-05-11T05:03:33.597Z,1015.9
2019-05-11T05:04:45.795Z,1015.9
2019-05-11T05:05:57.999Z,1015.9
2019-05-11T05:07:10.204Z,1016
2019-05-11T05:08:22.478Z,1016
2019-05-11T05:09:34.608Z,1016.1
2019-05-11T05:10:46.805Z,1016.1
2019-05-11T05:11:59.009Z,1016
2019-05-11T05:13:11.201Z,1016
2019-05-11T05:14:23.405Z,1016.1
2019-05-11T05:15:35.618Z,1016
2019-05-11T05:16:51.347Z,1016
2019-05-11T05:18:00.017Z,1016.1
2019-05-11T05:19:12.216Z,1016.1
2019-05-11T05:20:24.413Z,1016.1
2019-05-11T05:21:36.613Z,1016.1
2019-05-11T05:22:48.813Z,1016.1
2019-05-11T05:24:01.017Z,1016.1
2019-05-11T05:25:13.223Z,1016.2
2019-05-11T05:26:25.431Z,1016.2
2019-05-11T05:27:37.626Z,1016.2
2019-05-11T05:28:49.828Z,1016.2
2019-05-11T05:30:02.022Z,1016.3
2019-05-11T05:31:14.220Z,1016.2
2019-05-11T05:32:26.423Z,1016.2
2019-05-11T05:33:38.635Z,1016.2
2019-05-11T05:34:50.872Z,1016.1
2019-05-11T05:36:03.028Z,1016.1
2019-05-11T05:37:15.233Z,1016.2
2019-05-11T05:38:27.460Z,1016.2
2019-05-11T05:39:39.634Z,1016.2
2019-05-11T05:40:51.921Z,1016.2
2019-05-11T05:42:04.033Z,1016.2
2019-05-11T05:43:16.249Z,1016.3
2019-05-11T05:44:28.457Z,1016.3
2019-05-11T05:45:40.644Z,1016.4
2019-05-11T05:46:52.844Z,1016.3
2019-05-11T05:48:05.040Z,1016.4
2019-05-11T05:49:17.242Z,1016.3
2019-05-11T05:50:29.442Z,1016.4
2019-05-11T05:51:41.640Z,1016.5
2019-05-11T05:52:53.836Z,1016.4
2019-05-11T05:54:06.052Z,1016.4
2019-05-11T05:55:18.253Z,1016.4
2019-05-11T05:56:30.481Z,1016.4
2019-05-11T05:57:42.653Z,1016.4
2019-05-11T05:58:54.852Z,1016.4
2019-05-11T06:00:07.005Z,1016.4
2019-05-11T06:01:19.255Z,1016.4
2019-05-11T06:02:31.444Z,1016.4
2019-05-11T06:03:43.661Z,1016.4
2019-05-11T06:04:55.863Z,1016.3
2019-05-11T06:06:08.081Z,1016.3
2019-05-11T06:07:20.258Z,1016.4
2019-05-11T06:08:32.853Z,1016.4
2019-05-11T06:09:44.654Z,1016.3
2019-05-11T06:10:56.873Z,1016.3
2019-05-11T06:12:09.060Z,1016.4
2019-05-11T06:13:21.268Z,1016.4
2019-05-11T06:14:33.473Z,1016.4
2019-05-11T06:15:45.670Z,1016.4
2019-05-11T06:16:58.190Z,1016.4
2019-05-11T06:18:10.073Z,1016.3
2019-05-11T06:19:22.270Z,1016.4
2019-05-11T06:20:34.468Z,1016.4
2019-05-11T06:21:46.668Z,1016.4
2019-05-11T06:22:58.870Z,1016.4
2019-05-11T06:24:11.076Z,1016.4
2019-05-11T06:25:23.276Z,1016.4
2019-05-11T06:27:47.685Z,1016.4
2019-05-11T06:28:59.880Z,1016.5
2019-05-11T06:30:12.082Z,1016.5
2019-05-11T06:31:24.281Z,1016.6
2019-05-11T06:32:36.476Z,1016.6
2019-05-11T06:33:48.720Z,1016.6
2019-05-11T06:35:00.888Z,1016.6
2019-05-11T06:36:13.079Z,1016.7
2019-05-11T06:37:25.311Z,1016.6
2019-05-11T06:38:37.486Z,1016.5
2019-05-11T06:39:49.725Z,1016.6
2019-05-11T06:41:01.884Z,1016.6
2019-05-11T06:42:14.094Z,1016.6
2019-05-11T06:43:26.308Z,1016.6
2019-05-11T06:44:38.492Z,1016.7
2019-05-11T06:45:50.697Z,1016.7
2019-05-11T06:47:02.894Z,1016.7
2019-05-11T06:48:15.136Z,1016.7
2019-05-11T06:49:27.524Z,1016.7
2019-05-11T06:50:39.498Z,1016.7
2019-05-11T06:51:51.712Z,1016.7
2019-05-11T06:53:03.897Z,1016.8
2019-05-11T06:54:16.124Z,1016.8
2019-05-11T06:55:28.030Z,1016.8
2019-05-11T06:56:40.497Z,1016.8
2019-05-11T06:57:52.705Z,1016.9
2019-05-11T06:59:04.904Z,1016.9
2019-05-11T07:00:17.113Z,1016.9
2019-05-11T07:01:29.311Z,1016.9
2019-05-11T07:02:41.920Z,1016.9
2019-05-11T07:03:53.007Z,1016.8
2019-05-11T07:05:05.918Z,1016.9
2019-05-11T07:06:18.110Z,1016.9
2019-05-11T07:07:30.310Z,1016.9
2019-05-11T07:08:42.521Z,1017
2019-05-11T07:09:54.914Z,1016.9
2019-05-11T07:11:06.921Z,1017
2019-05-11T07:12:19.122Z,1016.9
2019-05-11T07:13:31.325Z,1016.9
2019-05-11T07:14:43.521Z,1017
2019-05-11T07:15:55.722Z,1016.9
2019-05-11T07:17:07.932Z,1017
2019-05-11T07:18:20.133Z,1017.1
2019-05-11T07:19:32.322Z,1017.1
2019-05-11T07:20:44.530Z,1017
2019-05-11T07:21:56.737Z,1017.1
2019-05-11T07:23:08.931Z,1017.1
2019-05-11T07:24:21.133Z,1017
2019-05-11T07:25:33.578Z,1017
2019-05-11T07:26:45.523Z,1017.1
2019-05-11T07:27:57.749Z,1017.1
2019-05-11T07:29:09.941Z,1017
2019-05-11T07:30:22.013Z,1017.1
2019-05-11T07:31:34.339Z,1017.1
2019-05-11T07:32:46.053Z,1017.2
2019-05-11T07:33:58.776Z,1017.1
2019-05-11T07:35:10.952Z,1017.1
2019-05-11T07:36:23.140Z,1017.1
2019-05-11T07:37:35.338Z,1017.2
2019-05-11T07:38:47.542Z,1017.2
2019-05-11T07:39:59.750Z,1017.2
2019-05-11T07:41:11.942Z,1017.2
2019-05-11T07:42:24.142Z,1017.2
2019-05-11T07:43:36.348Z,1017.1
2019-05-11T07:44:48.547Z,1017.2
2019-05-11T07:46:00.749Z,1017.3
2019-05-11T07:47:12.943Z,1017.2
2019-05-11T07:48:25.149Z,1017.2
2019-05-11T07:49:37.037Z,1017.1
2019-05-11T07:50:49.582Z,1017.1
2019-05-11T07:52:01.757Z,1017.1
2019-05-11T07:53:13.954Z,1017.1
2019-05-11T07:54:26.168Z,1017.2
2019-05-11T07:55:38.358Z,1017.2
2019-05-11T07:56:50.553Z,1017.2
2019-05-11T07:58:02.770Z,1017.2
2019-05-11T07:59:14.981Z,1017.2
2019-05-11T08:00:27.166Z,1017.2
2019-05-11T08:01:39.361Z,1017.2
2019-05-11T08:02:51.577Z,1017.1
2019-05-11T08:04:03.765Z,1017.2
2019-05-11T08:05:15.959Z,1017.2
2019-05-11T08:06:28.165Z,1017.2
2019-05-11T08:07:40.371Z,1017.1
2019-05-11T08:08:52.565Z,1017.2
2019-05-11T08:10:04.777Z,1017.2
2019-05-11T08:11:16.009Z,1017.1
2019-05-11T08:12:29.173Z,1017.3
2019-05-11T08:13:41.376Z,1017.2
2019-05-11T08:14:53.573Z,1017.2
2019-05-11T08:16:05.077Z,1017.3
2019-05-11T08:17:17.971Z,1017.2
2019-05-11T08:18:30.165Z,1017.3
2019-05-11T08:19:42.381Z,1017.3
2019-05-11T08:20:54.581Z,1017.3
2019-05-11T08:22:06.777Z,1017.3
2019-05-11T08:23:18.979Z,1017.3
2019-05-11T08:24:31.177Z,1017.4
2019-05-11T08:25:43.038Z,1017.4
2019-05-11T08:28:07.841Z,1017.4
2019-05-11T08:29:19.994Z,1017.4
2019-05-11T08:30:32.190Z,1017.4
2019-05-11T08:31:44.570Z,1017.4
2019-05-11T08:32:56.605Z,1017.3
2019-05-11T08:34:08.789Z,1017.4
2019-05-11T08:35:21.013Z,1017.4
2019-05-11T08:36:33.192Z,1017.4
2019-05-11T08:37:45.392Z,1017.4
2019-05-11T08:38:57.589Z,1017.4
2019-05-11T08:40:09.801Z,1017.4
2019-05-11T08:41:21.992Z,1017.4
2019-05-11T08:42:34.200Z,1017.4
2019-05-11T08:43:46.401Z,1017.4
2019-05-11T08:44:58.676Z,1017.3
2019-05-11T08:46:10.799Z,1017.3
2019-05-11T08:47:22.999Z,1017.4
2019-05-11T08:48:35.248Z,1017.4
2019-05-11T08:49:47.410Z,1017.4
2019-05-11T08:50:59.602Z,1017.3
2019-05-11T08:52:11.814Z,1017.4
2019-05-11T08:53:24.009Z,1017.4
2019-05-11T08:54:36.208Z,1017.4
2019-05-11T08:55:48.411Z,1017.4
2019-05-11T08:57:00.609Z,1017.4
2019-05-11T08:58:12.818Z,1017.5
2019-05-11T08:59:25.021Z,1017.5
2019-05-11T09:00:37.216Z,1017.5
2019-05-11T09:01:49.004Z,1017.5
2019-05-11T09:03:01.620Z,1017.4
2019-05-11T09:04:13.810Z,1017.3
2019-05-11T09:05:26.001Z,1017.4
2019-05-11T09:06:38.022Z,1017.4
2019-05-11T09:07:50.409Z,1017.4
2019-05-11T09:09:02.619Z,1017.4
2019-05-11T09:10:14.861Z,1017.4
2019-05-11T09:11:27.026Z,1017.4
2019-05-11T09:12:39.022Z,1017.4
2019-05-11T09:13:51.419Z,1017.5
2019-05-11T09:15:03.653Z,1017.5
2019-05-11T09:16:15.830Z,1017.5
2019-05-11T09:17:28.026Z,1017.5
2019-05-11T09:18:40.226Z,1017.4
2019-05-11T09:19:52.434Z,1017.4
2019-05-11T09:21:04.636Z,1017.5
2019-05-11T09:22:16.834Z,1017.5
2019-05-11T09:23:29.034Z,1017.5
2019-05-11T09:24:41.237Z,1017.5
2019-05-11T09:25:53.437Z,1017.4
2019-05-11T09:27:05.635Z,1017.4
2019-05-11T09:28:17.840Z,1017.4
2019-05-11T09:29:30.074Z,1017.5
2019-05-11T09:30:42.236Z,1017.5
2019-05-11T09:31:54.446Z,1017.5
2019-05-11T09:33:06.646Z,1017.5
2019-05-11T09:34:18.846Z,1017.4
2019-05-11T09:35:31.044Z,1017.4
2019-05-11T09:36:43.239Z,1017.4
2019-05-11T09:37:55.509Z,1017.5
2019-05-11T09:39:07.961Z,1017.5
2019-05-11T09:40:20.491Z,1017.5
2019-05-11T09:41:32.072Z,1017.5
2019-05-11T09:42:44.252Z,1017.5
2019-05-11T09:43:56.827Z,1017.5
2019-05-11T09:45:08.652Z,1017.5
2019-05-11T09:46:20.853Z,1017.6
2019-05-11T09:47:33.053Z,1017.6
2019-05-11T09:48:45.258Z,1017.6
2019-05-11T09:49:57.454Z,1017.6
2019-05-11T09:51:09.665Z,1017.6
2019-05-11T09:52:21.866Z,1017.6
2019-05-11T09:53:34.055Z,1017.6
2019-05-11T09:54:46.270Z,1017.6
2019-05-11T09:55:58.461Z,1017.7
2019-05-11T09:57:10.663Z,1017.7
2019-05-11T09:58:22.870Z,1017.8
2019-05-11T09:59:35.035Z,1017.7
2019-05-11T10:00:47.271Z,1017.7
2019-05-11T10:01:59.474Z,1017.7
2019-05-11T10:03:11.679Z,1017.7
2019-05-11T10:04:23.873Z,1017.7
2019-05-11T10:05:36.071Z,1017.7
2019-05-11T10:08:00.475Z,1017.7
2019-05-11T10:09:12.685Z,1017.7
2019-05-11T10:10:25.402Z,1017.7
2019-05-11T10:11:37.086Z,1017.7
2019-05-11T10:12:49.052Z,1017.8
2019-05-11T10:14:01.480Z,1017.8
2019-05-11T10:15:13.703Z,1017.8
2019-05-11T10:16:25.872Z,1017.7
2019-05-11T10:17:38.113Z,1017.8
2019-05-11T10:18:50.279Z,1017.7
2019-05-11T10:20:02.489Z,1017.7
2019-05-11T10:21:14.705Z,1017.7
2019-05-11T10:22:26.922Z,1017.8
2019-05-11T10:23:39.088Z,1017.8
2019-05-11T10:24:51.028Z,1017.8
2019-05-11T10:26:03.490Z,1017.9
2019-05-11T10:27:15.689Z,1017.8
2019-05-11T10:28:27.890Z,1017.8
2019-05-11T10:29:40.081Z,1017.8
2019-05-11T10:30:52.287Z,1017.8
2019-05-11T10:32:04.499Z,1017.8
2019-05-11T10:33:16.702Z,1017.8
2019-05-11T10:34:28.897Z,1017.8
2019-05-11T10:35:41.093Z,1017.8
2019-05-11T10:36:53.298Z,1017.8
2019-05-11T10:38:05.487Z,1017.8
2019-05-11T10:39:17.067Z,1017.9
2019-05-11T10:40:29.905Z,1017.9
2019-05-11T10:41:42.093Z,1017.8
2019-05-11T10:42:54.287Z,1017.8
2019-05-11T10:44:06.490Z,1017.8
2019-05-11T10:45:18.693Z,1017.8
2019-05-11T10:46:30.915Z,1017.9
2019-05-11T10:47:43.086Z,1017.8
2019-05-11T10:48:55.287Z,1017.8
2019-05-11T10:50:07.478Z,1017.9
2019-05-11T10:51:19.675Z,1017.8
2019-05-11T10:52:31.873Z,1017.9
2019-05-11T10:53:44.077Z,1017.9
2019-05-11T10:54:56.278Z,1017.9
2019-05-11T10:56:08.472Z,1017.8
2019-05-11T10:57:20.677Z,1017.8
2019-05-11T10:58:32.874Z,1017.8
2019-05-11T10:59:45.075Z,1017.8
2019-05-11T11:00:57.282Z,1017.9
2019-05-11T11:02:09.051Z,1017.9
2019-05-11T11:03:21.665Z,1017.8
2019-05-11T11:04:33.868Z,1017.9
2019-05-11T11:05:46.064Z,1017.8
2019-05-11T11:08:10.471Z,1017.7
2019-05-11T11:09:22.656Z,1017.8
2019-05-11T11:10:35.003Z,1017.8
2019-05-11T11:11:47.081Z,1017.8
2019-05-11T11:12:59.262Z,1017.8
2019-05-11T11:14:11.463Z,1017.8
2019-05-11T11:15:23.660Z,1017.8
2019-05-11T11:16:35.856Z,1017.8
2019-05-11T11:17:48.060Z,1017.8
2019-05-11T11:19:00.245Z,1017.8
2019-05-11T11:20:12.461Z,1017.8
2019-05-11T11:21:24.654Z,1017.7
2019-05-11T11:22:36.853Z,1017.8
2019-05-11T11:23:49.053Z,1017.8
2019-05-11T11:25:01.251Z,1017.8
2019-05-11T11:26:13.451Z,1017.8
2019-05-11T11:27:25.653Z,1017.8
2019-05-11T11:28:37.856Z,1017.8
2019-05-11T11:29:50.043Z,1017.8
2019-05-11T11:31:02.024Z,1017.8
2019-05-11T11:32:14.443Z,1017.7
2019-05-11T11:33:26.643Z,1017.7
2019-05-11T11:34:38.845Z,1017.7
2019-05-11T11:35:51.035Z,1017.9
2019-05-11T11:37:03.250Z,1017.8
2019-05-11T11:38:15.436Z,1017.8
2019-05-11T11:39:27.644Z,1017.8
2019-05-11T11:40:39.866Z,1017.8
2019-05-11T11:41:52.042Z,1017.8
2019-05-11T11:43:04.023Z,1017.8
2019-05-11T11:44:16.431Z,1017.8
2019-05-11T11:45:28.639Z,1017.9
2019-05-11T11:46:40.835Z,1017.9
2019-05-11T11:47:53.035Z,1018
2019-05-11T11:49:05.223Z,1017.9
2019-05-11T11:50:17.433Z,1017.9
2019-05-11T11:51:29.063Z,1017.9
2019-05-11T11:52:41.831Z,1017.8
2019-05-11T11:53:54.048Z,1017.9
2019-05-11T11:55:06.213Z,1017.9
2019-05-11T11:56:18.420Z,1017.9
2019-05-11T11:57:30.622Z,1017.9
2019-05-11T11:58:42.818Z,1017.9
2019-05-11T11:59:55.019Z,1017.9
2019-05-11T12:01:07.241Z,1018
2019-05-11T12:02:19.419Z,1017.9
2019-05-11T12:03:31.627Z,1017.9
2019-05-11T12:04:43.813Z,1018
2019-05-11T12:05:56.021Z,1017.9
2019-05-11T12:07:08.207Z,1017.9
2019-05-11T12:08:20.409Z,1018
2019-05-11T12:09:32.611Z,1018
2019-05-11T12:10:44.081Z,1018
2019-05-11T12:11:57.001Z,1018
2019-05-11T12:13:09.212Z,1018
2019-05-11T12:14:21.421Z,1017.9
2019-05-11T12:15:33.604Z,1018
2019-05-11T12:16:45.808Z,1017.9
2019-05-11T12:17:58.000Z,1018
2019-05-11T12:19:10.224Z,1018
2019-05-11T12:21:34.600Z,1018
2019-05-11T12:22:46.803Z,1018.1
2019-05-11T12:23:59.016Z,1018
2019-05-11T12:25:11.200Z,1018
2019-05-11T12:26:23.511Z,1018
2019-05-11T12:27:35.595Z,1018.1
2019-05-11T12:28:47.792Z,1018
2019-05-11T12:30:00.051Z,1018
2019-05-11T12:31:12.333Z,1018.1
2019-05-11T12:32:24.038Z,1018
2019-05-11T12:33:36.654Z,1018.1
2019-05-11T12:34:48.782Z,1018.1
2019-05-11T12:36:00.994Z,1018.1
2019-05-11T12:37:13.183Z,1018
2019-05-11T12:38:25.380Z,1018
2019-05-11T12:39:37.594Z,1018.1
2019-05-11T12:40:49.782Z,1018.2
2019-05-11T12:42:01.993Z,1018.1
2019-05-11T12:43:14.210Z,1018.1
2019-05-11T12:44:26.384Z,1018.1
2019-05-11T12:45:38.576Z,1018.1
2019-05-11T12:46:50.778Z,1018.1
2019-05-11T12:48:02.995Z,1018.1
2019-05-11T12:49:17.256Z,1018.2
2019-05-11T12:50:27.378Z,1018.1
2019-05-11T12:51:39.569Z,1018.2
2019-05-11T12:52:51.778Z,1018.2
2019-05-11T12:54:03.976Z,1018.2
2019-05-11T12:55:16.170Z,1018.2
2019-05-11T12:56:28.369Z,1018.2
2019-05-11T12:57:40.566Z,1018.2
2019-05-11T12:58:52.763Z,1018.1
2019-05-11T13:00:04.968Z,1018.2
2019-05-11T13:01:17.160Z,1018.2
2019-05-11T13:02:29.368Z,1018.2
2019-05-11T13:03:41.564Z,1018.2
2019-05-11T13:04:53.768Z,1018.2
2019-05-11T13:06:05.964Z,1018.2
2019-05-11T13:07:18.164Z,1018.3
2019-05-11T13:08:30.364Z,1018.3
2019-05-11T13:09:42.576Z,1018.3
2019-05-11T13:10:54.758Z,1018.3
2019-05-11T13:12:06.969Z,1018.3
2019-05-11T13:13:19.154Z,1018.3
2019-05-11T13:14:31.348Z,1018.3
2019-05-11T13:15:43.555Z,1018.4
2019-05-11T13:16:55.756Z,1018.4
2019-05-11T13:18:07.946Z,1018.4
2019-05-11T13:19:20.196Z,1018.4
2019-05-11T13:20:32.360Z,1018.5
2019-05-11T13:21:44.055Z,1018.5
2019-05-11T13:22:56.742Z,1018.4
2019-05-11T13:24:08.094Z,1018.4
2019-05-11T13:25:21.143Z,1018.4
2019-05-11T13:26:33.346Z,1018.4
2019-05-11T13:27:45.577Z,1018.5
2019-05-11T13:28:58.871Z,1018.4
2019-05-11T13:30:09.966Z,1018.4
2019-05-11T13:31:22.015Z,1018.4
2019-05-11T13:32:34.379Z,1018.5
2019-05-11T13:33:46.544Z,1018.5
2019-05-11T13:34:58.743Z,1018.4
2019-05-11T13:36:10.932Z,1018.5
2019-05-11T13:37:23.128Z,1018.4
2019-05-11T13:38:35.033Z,1018.5
2019-05-11T13:39:47.534Z,1018.4
2019-05-11T13:40:59.733Z,1018.5
2019-05-11T13:42:11.935Z,1018.4
2019-05-11T13:43:24.135Z,1018.5
2019-05-11T13:44:36.333Z,1018.5
2019-05-11T13:45:48.533Z,1018.5
2019-05-11T13:47:00.741Z,1018.5
2019-05-11T13:48:12.092Z,1018.5
2019-05-11T13:49:25.126Z,1018.6
2019-05-11T13:50:37.321Z,1018.6
2019-05-11T13:51:49.525Z,1018.6
2019-05-11T13:53:01.727Z,1018.7
2019-05-11T13:54:13.916Z,1018.7
2019-05-11T13:55:26.122Z,1018.7
2019-05-11T13:56:38.322Z,1018.7
2019-05-11T13:57:50.518Z,1018.7
2019-05-11T13:59:02.721Z,1018.7
2019-05-11T14:00:14.912Z,1018.7
2019-05-11T14:01:27.121Z,1018.7
2019-05-11T14:02:39.351Z,1018.7
2019-05-11T14:03:51.519Z,1018.8
2019-05-11T14:05:03.720Z,1018.7
2019-05-11T14:06:15.918Z,1018.7
2019-05-11T14:07:28.116Z,1018.8
2019-05-11T14:08:40.314Z,1018.8
2019-05-11T14:09:52.558Z,1018.8
2019-05-11T14:11:04.713Z,1018.8
2019-05-11T14:12:16.909Z,1018.8
2019-05-11T14:13:29.105Z,1018.9
2019-05-11T14:14:41.312Z,1018.8
2019-05-11T14:15:53.505Z,1018.8
2019-05-11T14:17:05.693Z,1018.9
2019-05-11T14:18:17.903Z,1018.9
2019-05-11T14:19:30.100Z,1018.9
2019-05-11T14:21:54.505Z,1018.9
2019-05-11T14:23:06.703Z,1019
2019-05-11T14:24:18.903Z,1019
2019-05-11T14:25:31.091Z,1019.1
2019-05-11T14:26:43.305Z,1019
2019-05-11T14:27:55.489Z,1018.9
2019-05-11T14:29:07.701Z,1018.9
2019-05-11T14:30:19.890Z,1019
2019-05-11T14:31:32.090Z,1018.9
2019-05-11T14:32:44.293Z,1018.9
2019-05-11T14:33:56.048Z,1018.9
2019-05-11T14:35:08.702Z,1018.9
2019-05-11T14:36:20.881Z,1018.9
2019-05-11T14:37:49.929Z,1018.8
2019-05-11T14:38:45.276Z,1018.8
2019-05-11T14:39:57.482Z,1018.9
2019-05-11T14:41:09.681Z,1018.9
2019-05-11T14:43:34.008Z,1018.8
2019-05-11T14:44:46.281Z,1018.9
2019-05-11T14:45:58.505Z,1018.9
2019-05-11T14:47:10.673Z,1019
2019-05-11T14:48:22.088Z,1018.9
2019-05-11T14:49:35.071Z,1018.9
2019-05-11T14:50:47.271Z,1018.9
2019-05-11T14:51:59.471Z,1018.9
2019-05-11T14:53:11.673Z,1018.9
2019-05-11T14:54:23.873Z,1019.1
2019-05-11T14:55:36.065Z,1019
2019-05-11T14:56:48.272Z,1019
2019-05-11T14:58:00.470Z,1019.1
2019-05-11T14:59:12.686Z,1019
2019-05-11T15:01:37.005Z,1019
2019-05-11T15:02:49.265Z,1019.2
2019-05-11T15:04:01.463Z,1019
2019-05-11T15:05:13.065Z,1019
2019-05-11T15:07:38.123Z,1019
2019-05-11T15:08:50.262Z,1019.1
2019-05-11T15:10:02.449Z,1019.2
2019-05-11T15:11:14.992Z,1019.2
2019-05-11T15:12:26.855Z,1019.3
2019-05-11T15:13:39.059Z,1019.2
2019-05-11T15:14:51.254Z,1019.2
2019-05-11T15:16:03.453Z,1019.3
2019-05-11T15:17:15.658Z,1019.3
2019-05-11T15:18:27.847Z,1019.2